Airfield :
LOGIN :

Register | Disclaimer

   EN    FR    IT 

 










Legend :    VFR   Marginal VFR   IFR   Intensive IFR   Very Intensive IFR
Visi :
Ceiling :
>= 8 km
>= 3000ft
5 to 8 km
1000 to 3000 ft
1500m to 5 km
500 to 1000 ft
800 to 1500m
200 to 500 ft
< 800m
< 200 ft
Symbols :   Thunderstorms  Fog  Heavy snow  Heavy precipitations  Wind > 20 kt
SIGMETs :     Misc.  Thunderstorms  Icing  Turbulence  Mountain Waves  Volcanic Ashes







- Airport Elevation : 675 ft
- IATA code : RZE


EPRZ - Rzeszow-Jasionka

CURRENT METAR :
  • 181500Z 01009KT 9999 FEW050TCU 23/15 Q1016

EXPIRED METARs :
  • 181430Z 01010KT 9999 FEW040 23/16 Q1016
  • 181400Z 01011KT 9999 FEW037TCU 23/16 Q1016
  • 181330Z 36008KT 340V040 9999 BKN037 22/15 Q1016
  • 181300Z 35009KT 320V020 9999 FEW040 23/16 Q1016
  • 181230Z 36011KT CAVOK 22/16 Q1016

TAF TAF EPRZ
Valid from the 18 at 12:00 until the 19 at 12:00 UTC


181130Z 1812/1912 36010KT 9999 BKN035
TEMPO 1812/1824 VRB15G30KT 3000 TSRA BKN030CB
BECMG 1821/1824 30005KT
TEMPO 1900/1912 BKN030CB
PROB30
TEMPO 1900/1909 BKN012
No reported NOTAMs for that airfield.
1 SIGMET reported for the Warszawa FIR (EPWW) :
 
Embedded thunderstorms
EPWW SIGMET 1 VALID 181515/181915 EPWA
EPWW WARSAW FIR EMBD TS OBS E OF LINE N5130 E02330 - N5040 E02110 - N4900 E02210 TOP FL350 MOV NE NC=



MET'MAP, your aeronautical weather chart ! - Copyright ORBIFLY December 2007 - Disclaimer

ORBIFLY MET'MAP TEAM :

Programming & Development : Alexandra Zaïnal
Concept & Development : Baudouin d'Aumeries
Co-Development & Prog : Marc-Olivier Méhu
Technical & hardware support : Manuel Goepfert

Contact : metmap@orbifly.com




SOURCES & CREDITS :

   NOAA